Terminal Aerodrome Forecast
Issued by NWS Mobile, AL

Home | Current Version | Previous Version | Text Only | Print | Product List | Glossary On
Versions: 1 2 3 4 5 6 7 8 9 10 11 12 13 14 15 16 17 18 19 20 21 22 23 24 25 26
237
FTUS44 KMOB 180520
TAFMOB
TAF
KMOB 180520Z 1806/1906 14009KT P6SM FEW030 BKN120
     FM180900 11010KT P6SM BKN090
     FM181400 12016G24KT P6SM VCSH BKN080 PROB30 1818/1824 5SM SHRA
      OVC025=

USA.gov is the U.S. government's official web portal to all federal, state and local government web resources and services.